createdAt,value
2018-12-20T00:01:36.308Z,101156.30
2018-12-20T00:06:39.464Z,101156.41
2018-12-20T00:11:42.731Z,101149.85
2018-12-20T00:16:45.915Z,101152.44
2018-12-20T00:21:49.146Z,101157.86
2018-12-20T00:26:52.279Z,101166.23
2018-12-20T00:31:55.642Z,101165.16
2018-12-20T00:36:58.979Z,101165.56
2018-12-20T00:42:02.201Z,101172.72
2018-12-20T00:47:05.610Z,101171.02
2018-12-20T00:52:08.952Z,101172.37
2018-12-20T00:57:12.118Z,101174.55
2018-12-20T01:02:15.339Z,101168.17
2018-12-20T01:07:18.672Z,101167.22
2018-12-20T01:12:21.951Z,101170.24
2018-12-20T01:17:25.125Z,101171.91
2018-12-20T01:22:28.466Z,101180.52
2018-12-20T01:27:31.701Z,101171.19
2018-12-20T01:32:35.143Z,101171.33
2018-12-20T01:37:38.500Z,101175.30
2018-12-20T01:42:41.702Z,101178.81
2018-12-20T01:47:45.649Z,101179.40
2018-12-20T01:52:49.053Z,101180.11
2018-12-20T01:57:52.382Z,101185.78
2018-12-20T02:02:55.493Z,101181.91
2018-12-20T02:07:58.785Z,101175.36
2018-12-20T02:13:02.075Z,101174.04
2018-12-20T02:18:05.365Z,101164.44
2018-12-20T02:23:08.681Z,101165.35
2018-12-20T02:28:11.931Z,101155.62
2018-12-20T02:33:15.250Z,101153.08
2018-12-20T02:38:18.564Z,101154.86
2018-12-20T02:43:21.777Z,101149.20
2018-12-20T02:48:25.239Z,101148.25
2018-12-20T02:53:28.633Z,101143.81
2018-12-20T02:58:32.120Z,101146.36
2018-12-20T03:03:35.634Z,101147.68
2018-12-20T03:08:39.767Z,101151.08
2018-12-20T03:13:43.199Z,101140.80
2018-12-20T03:18:46.542Z,101130.66
2018-12-20T03:23:49.820Z,101124.04
2018-12-20T03:28:53.149Z,101124.89
2018-12-20T03:33:56.604Z,101127.59
2018-12-20T03:39:00.211Z,101122.52
2018-12-20T03:44:03.654Z,101129.30
2018-12-20T03:49:07.123Z,101126.25
2018-12-20T03:54:10.435Z,101126.48
2018-12-20T03:59:13.721Z,101125.50
2018-12-20T04:04:17.157Z,101126.25
2018-12-20T04:09:20.388Z,101117.56
2018-12-20T04:14:23.734Z,101121.87
2018-12-20T04:19:27.033Z,101124.31
2018-12-20T04:24:30.331Z,101124.02
2018-12-20T04:29:33.774Z,101129.06
2018-12-20T04:34:37.218Z,101127.23
2018-12-20T04:39:40.659Z,101121.84
2018-12-20T04:44:44.039Z,101121.94
2018-12-20T04:49:47.499Z,101119.30
2018-12-20T04:54:50.857Z,101131.16
2018-12-20T04:59:53.991Z,101121.91
2018-12-20T05:04:57.391Z,101126.41
2018-12-20T05:10:00.740Z,101114.28
2018-12-20T05:15:05.261Z,101111.02
2018-12-20T05:20:08.709Z,101116.01
2018-12-20T05:25:12.034Z,101112.28
2018-12-20T05:30:15.272Z,101111.05
2018-12-20T05:35:18.740Z,101113.09
2018-12-20T05:40:22.007Z,101126.77
2018-12-20T05:45:25.607Z,101118.48
2018-12-20T05:50:29.596Z,101118.37
2018-12-20T05:55:32.872Z,101112.00
2018-12-20T06:00:35.993Z,101108.61
2018-12-20T06:05:39.740Z,101104.65
2018-12-20T06:10:43.491Z,101101.39
2018-12-20T06:15:55.877Z,101103.83
2018-12-20T06:21:00.166Z,101101.90
2018-12-20T06:26:03.885Z,101100.16
2018-12-20T06:31:07.099Z,101102.63
2018-12-20T06:36:10.368Z,101105.52
2018-12-20T06:41:13.654Z,101113.72
2018-12-20T06:46:21.302Z,101102.91
2018-12-20T06:51:23.108Z,101109.10
2018-12-20T06:56:28.235Z,101112.78
2018-12-20T07:01:31.426Z,101119.80
2018-12-20T07:06:34.892Z,101112.86
2018-12-20T07:11:38.282Z,101120.44
2018-12-20T07:16:41.615Z,101119.31
2018-12-20T07:21:44.771Z,101118.46
2018-12-20T07:26:48.018Z,101118.73
2018-12-20T07:31:51.237Z,101119.11
2018-12-20T07:36:54.404Z,101119.78
2018-12-20T07:41:57.572Z,101115.88
2018-12-20T07:47:00.752Z,101117.47
2018-12-20T07:52:03.939Z,101124.47
2018-12-20T07:57:07.270Z,101116.07
2018-12-20T08:02:10.871Z,101118.77
2018-12-20T08:07:14.140Z,101120.38
2018-12-20T08:12:17.283Z,101124.44
2018-12-20T08:17:20.629Z,101122.45
2018-12-20T08:22:24.034Z,101128.35
2018-12-20T08:27:27.360Z,101127.79
2018-12-20T08:32:30.506Z,101123.16
2018-12-20T08:37:33.683Z,101124.45
2018-12-20T08:42:36.957Z,101123.06
2018-12-20T08:47:40.237Z,101131.87
2018-12-20T08:52:43.513Z,101134.45
2018-12-20T08:57:46.819Z,101134.34
2018-12-20T09:02:50.082Z,101136.88
2018-12-20T09:07:53.313Z,101149.09
2018-12-20T09:12:56.521Z,101144.17
2018-12-20T09:17:59.772Z,101151.92
2018-12-20T09:23:03.558Z,101146.05
2018-12-20T09:28:07.186Z,101156.81
2018-12-20T09:33:10.502Z,101154.16
2018-12-20T09:38:13.663Z,101148.74
2018-12-20T09:43:16.864Z,101149.81
2018-12-20T09:48:20.046Z,101146.44
2018-12-20T09:53:23.330Z,101139.23
2018-12-20T09:58:26.537Z,101131.62
2018-12-20T10:03:29.716Z,101126.20
2018-12-20T10:08:33.269Z,101118.11
2018-12-20T10:13:36.400Z,101108.19
2018-12-20T10:18:39.594Z,101103.98
2018-12-20T10:23:42.797Z,101099.64
2018-12-20T10:28:46.759Z,101096.61
2018-12-20T10:33:50.056Z,101098.52
2018-12-20T10:38:53.390Z,101092.36
2018-12-20T10:43:56.527Z,101089.78
2018-12-20T10:48:59.686Z,101069.33
2018-12-20T10:54:02.983Z,101063.90
2018-12-20T10:59:06.192Z,101058.62
2018-12-20T11:04:09.370Z,101052.67
2018-12-20T11:09:12.536Z,101056.84
2018-12-20T11:14:16.193Z,101053.77
2018-12-20T11:19:19.432Z,101051.53
2018-12-20T11:24:22.742Z,101045.55
2018-12-20T11:29:25.946Z,101043.83
2018-12-20T11:34:31.378Z,101039.80
2018-12-20T11:39:34.640Z,101039.19
2018-12-20T11:44:37.759Z,101038.98
2018-12-20T11:49:41.084Z,101036.20
2018-12-20T11:54:44.855Z,101026.66
2018-12-20T11:59:48.134Z,101028.83
2018-12-20T12:04:51.505Z,101027.47
2018-12-20T12:09:55.516Z,101026.22
2018-12-20T12:14:58.666Z,101023.05
2018-12-20T12:20:02.070Z,101024.33
2018-12-20T12:25:06.460Z,101012.61
2018-12-20T12:30:10.469Z,101013.45
2018-12-20T12:35:13.631Z,101005.20
2018-12-20T12:40:17.339Z,101018.53
2018-12-20T12:45:21.233Z,101017.33
2018-12-20T12:50:24.542Z,101013.86
2018-12-20T12:55:28.799Z,101010.08
2018-12-20T13:00:32.373Z,101008.34
2018-12-20T13:05:36.330Z,101008.86
2018-12-20T13:10:41.786Z,101011.30
2018-12-20T13:15:46.136Z,101003.25
2018-12-20T13:20:49.345Z,100996.91
2018-12-20T13:25:52.500Z,100998.52
2018-12-20T13:30:55.754Z,100997.59
2018-12-20T13:35:59.053Z,100998.76
2018-12-20T13:41:02.312Z,100996.05
2018-12-20T13:46:05.590Z,101002.47
2018-12-20T13:51:08.886Z,101003.15
2018-12-20T13:56:12.225Z,101002.75
2018-12-20T14:01:15.758Z,101006.78
2018-12-20T14:06:18.999Z,101007.05
2018-12-20T14:11:22.376Z,101011.34
2018-12-20T14:16:25.671Z,101011.52
2018-12-20T14:21:29.092Z,101020.23
2018-12-20T14:26:32.563Z,101029.92
2018-12-20T14:31:35.872Z,101031.77
2018-12-20T14:36:40.635Z,101032.87
2018-12-20T14:41:43.864Z,101023.22
2018-12-20T14:46:47.323Z,101017.21
2018-12-20T14:51:50.594Z,101021.08
2018-12-20T14:56:53.912Z,101023.61
2018-12-20T15:01:57.822Z,101021.80
2018-12-20T15:07:03.186Z,101036.35
2018-12-20T15:12:07.998Z,101034.38
2018-12-20T15:17:11.862Z,101037.37
2018-12-20T15:22:18.508Z,101041.97
2018-12-20T15:27:22.103Z,101043.91
2018-12-20T15:32:25.686Z,101045.27
2018-12-20T15:37:29.632Z,101040.09
2018-12-20T15:42:33.763Z,101037.67
2018-12-20T15:47:36.938Z,101041.18
2018-12-20T15:52:40.160Z,101041.04
2018-12-20T15:57:43.563Z,101036.70
2018-12-20T16:02:47.693Z,101040.78
2018-12-20T16:07:50.998Z,101036.33
2018-12-20T16:12:54.229Z,101042.48
2018-12-20T16:17:58.052Z,101046.45
2018-12-20T16:23:01.665Z,101036.22
2018-12-20T16:28:04.925Z,101037.86
2018-12-20T16:33:08.287Z,101046.19
2018-12-20T16:38:11.719Z,101046.77
2018-12-20T16:43:15.039Z,101040.63
2018-12-20T16:48:18.321Z,101044.70
2018-12-20T16:53:21.625Z,101046.03
2018-12-20T16:58:24.914Z,101043.63
2018-12-20T17:03:28.213Z,101050.48
2018-12-20T17:08:31.448Z,101045.16
2018-12-20T17:13:34.669Z,101050.10
2018-12-20T17:18:37.864Z,101043.16
2018-12-20T17:23:41.047Z,101046.76
2018-12-20T17:28:45.913Z,101042.53
2018-12-20T17:33:49.270Z,101037.97
2018-12-20T17:38:52.508Z,101041.67
2018-12-20T17:43:55.948Z,101037.48
2018-12-20T17:48:59.173Z,101034.34
2018-12-20T17:54:03.339Z,101037.11
2018-12-20T17:59:06.540Z,101033.14
2018-12-20T18:04:09.715Z,101031.61
2018-12-20T18:09:13.062Z,101039.20
2018-12-20T18:14:16.750Z,101037.77
2018-12-20T18:19:22.039Z,101029.84
2018-12-20T18:24:25.269Z,101041.04
2018-12-20T18:29:28.434Z,101047.78
2018-12-20T18:34:31.965Z,101051.89
2018-12-20T18:39:35.388Z,101058.60
2018-12-20T18:44:39.116Z,101058.23
2018-12-20T18:49:47.443Z,101054.24
2018-12-20T18:54:47.475Z,101058.62
2018-12-20T18:59:50.704Z,101060.53
2018-12-20T19:04:54.769Z,101062.43
2018-12-20T19:09:57.932Z,101061.10
2018-12-20T19:15:01.292Z,101062.30
2018-12-20T19:20:06.173Z,101057.85
2018-12-20T19:25:09.416Z,101056.16
2018-12-20T19:30:12.601Z,101068.47
2018-12-20T19:35:15.829Z,101064.23
2018-12-20T19:40:19.580Z,101063.76
2018-12-20T19:45:22.886Z,101062.91
2018-12-20T19:50:26.061Z,101056.66
2018-12-20T19:55:29.585Z,101058.06
2018-12-20T20:00:32.869Z,101060.33
2018-12-20T20:05:36.052Z,101055.86
2018-12-20T20:10:39.334Z,101060.08
2018-12-20T20:15:44.256Z,101063.69
2018-12-20T20:20:49.830Z,101056.84
2018-12-20T20:25:56.063Z,101063.55
2018-12-20T20:31:02.286Z,101061.67
2018-12-20T20:36:14.313Z,101049.30
2018-12-20T20:41:17.808Z,101049.63
2018-12-20T20:46:21.227Z,101054.28
2018-12-20T20:51:24.372Z,101048.73
2018-12-20T20:56:27.727Z,101045.39
2018-12-20T21:01:30.935Z,101044.36
2018-12-20T21:06:34.149Z,101043.77
2018-12-20T21:11:37.457Z,101028.88
2018-12-20T21:16:40.879Z,101028.90
2018-12-20T21:21:44.066Z,101041.40
2018-12-20T21:26:47.365Z,101037.34
2018-12-20T21:31:51.886Z,101039.24
2018-12-20T21:36:58.750Z,101038.77
2018-12-20T21:42:04.224Z,101046.36
2018-12-20T21:47:10.801Z,101050.81
2018-12-20T21:52:16.297Z,101048.54
2018-12-20T21:57:21.563Z,101049.12
2018-12-20T22:02:29.800Z,101050.56
2018-12-20T22:07:34.773Z,101044.32
2018-12-20T22:12:40.401Z,101043.12
2018-12-20T22:17:46.388Z,101038.05
2018-12-20T22:22:51.465Z,101037.05
2018-12-20T22:27:54.987Z,101034.39
2018-12-20T22:32:58.252Z,101028.97
2018-12-20T22:38:01.411Z,101023.94
2018-12-20T22:43:04.632Z,101034.05
2018-12-20T22:48:07.795Z,101032.25
2018-12-20T22:53:11.108Z,101027.91
2018-12-20T22:58:14.289Z,101024.81
2018-12-20T23:03:17.526Z,101023.13
2018-12-20T23:08:20.785Z,101015.78
2018-12-20T23:13:24.725Z,101016.85
2018-12-20T23:18:27.943Z,101021.77
2018-12-20T23:23:31.180Z,101014.84
2018-12-20T23:28:34.381Z,101012.91
2018-12-20T23:33:37.618Z,101013.13
2018-12-20T23:38:40.828Z,101011.52
2018-12-20T23:43:44.051Z,101012.45
2018-12-20T23:48:47.379Z,101013.13
2018-12-20T23:53:50.534Z,101009.97
2018-12-20T23:58:54.513Z,100999.83
